Hauptseite
METAR-TAF:

METAR-TAF

Flughäfen :

Kuwait-Stadt, Kuwait

Flughafen Kuwait

Breite: 29-13N, Länge: 047-59E, Höhe: 55 m

Beobachtung

Neuester Wetterbericht von vor 49 Minuten, um 21:00 UTC
Windstille
Temperatur 14°C
Luftfeuchtigkeit 88%
Luftdruck 1015 hPa
Sichtweite 10 km oder mehr
keine Wolken unter 1500 m und keine Kumulonimbus oder Gewitterwolken

METAR: OKBK 252100Z 00000KT CAVOK 14/12 Q1015 NOSIG

Zeit: 00:49 (21:49 UTC)

Prognose

Neuester Wetterbericht von vor 17 Stunden und 4 Minuten, um 04:45 UTC
Gültige Prognose vom 25 um 06 UTC bis 26 um 12 UTC
Wind 12 kt aus Nord/Nordwest
Sichtweite: 2500 m
feuchter Dunst
Übergehend zu
vom 25 um 07 UTC bis 25 um 09 UTC
Sichtweite: 6000 m
Himmel klar

TAF: OKBK 250445Z 2506/2612 33012KT 2500 BR NSC BECMG 2507/2509 6000 SKC

Wetterbeobachtungen und Prognosen von mehr als 4000 Flughäfen (METAR und TAF Bericht).

Die verfügbaren Stationen werden durch gelbe und rote Markierungen auf der Karte dargestellt.

Führen Sie die Maus auf sie, um den Namen der Station zu sehen.

Darauf klicken, um die Beobachtung von Wetterbeobachtungen und Prognosen zu sehen.

Um die Karte zu ändern : klicken Sie auf den grünen Tasten mit einem schwarzen Kreuz Zum Vergrößern, auf den grünen Button mit einem Gedankenstrich zu verkleinern, oder auf die grünen Pfeile für benachbarte Karten.


METAR-TAF: